This is the latest recevied weather packets stored in our database for station/object OE3CJB-13. If no packets are shown the sender has not sent any weather packets the latest 10 day(s).
| Time | Temp. | Humidity | Pressure | Rain* | Wind** | Luminosity | Snow |
|---|---|---|---|---|---|---|---|
| 1777629640 | 16.67° C | - | 756 hPa | 0 mm | - | - | - |
| 1777628725 | 16.67° C | 10% | 755.2 hPa | 0 mm | - | - | - |
| 1777627866 | 16.11° C | 11% | 756 hPa | 0 mm | - | - | - |
| 1777626949 | 16.11° C | 11% | 756.1 hPa | 0 mm | - | - | - |
| 1777626040 | 15.56° C | 11% | 755.4 hPa | 0 mm | - | - | - |
| 1777625125 | 15° C | 11% | 757 hPa | 0 mm | - | - | - |
| 1777624213 | 14.44° C | 11% | 756.1 hPa | 0 mm | - | - | - |
| 1777623349 | 13.89° C | 12% | 756.2 hPa | 0 mm | - | - | - |
| 1777622440 | 13.33° C | 15% | 756.2 hPa | 0 mm | - | - | - |
| 1777621525 | 12.22° C | 17% | 755.4 hPa | 0 mm | - | - | - |
| 1777620614 | 11.67° C | 19% | 754.7 hPa | 0 mm | - | - | - |
| 1777619749 | 10.56° C | 21% | 753.9 hPa | 0 mm | - | - | - |
| 1777618840 | 10° C | 24% | 753.1 hPa | 0 mm | - | - | - |
| 1777617926 | 9.44° C | 25% | 750.8 hPa | 0 mm | - | - | - |
| 1777617066 | 8.89° C | 26% | 750 hPa | 0 mm | - | - | - |
| 1777616149 | 8.33° C | 28% | 750 hPa | 0 mm | - | - | - |
| 1777615240 | 7.22° C | 34% | 749.1 hPa | 0 mm | - | - | - |
| 1777614325 | 5.56° C | 37% | 746.8 hPa | 0 mm | - | - | - |
| 1777612549 | 3.89° C | 45% | 745.2 hPa | 0 mm | - | - | - |
| 1777611688 | 3.33° C | 48% | 742.8 hPa | 0 mm | - | - | - |
| 1777610725 | 2.22° C | 50% | 742.8 hPa | 0 mm | - | - | - |
| 1777609865 | 1.67° C | 50% | 742.7 hPa | 0 mm | - | - | - |
| 1777608949 | 1.67° C | 49% | 742.6 hPa | 0 mm | - | - | - |
| 1777608040 | 1.67° C | 48% | 744.1 hPa | 0 mm | - | - | - |
| 1777607125 | 1.67° C | 47% | 744.9 hPa | 0 mm | - | - | - |
* Rain latest hour (hover to see other rain measurements)
** Current wind speed in m/s (hover to see current wind gust speed)